createdAt,value
2018-08-09T00:00:06.703Z,61.06
2018-08-09T00:02:35.595Z,61.21
2018-08-09T00:05:05.083Z,61.26
2018-08-09T00:07:33.967Z,60.71
2018-08-09T00:10:02.928Z,61.38
2018-08-09T00:12:31.926Z,61.38
2018-08-09T00:15:00.827Z,61.10
2018-08-09T00:17:30.275Z,61.14
2018-08-09T00:19:59.246Z,60.89
2018-08-09T00:22:28.147Z,60.57
2018-08-09T00:24:57.144Z,60.60
2018-08-09T00:27:26.019Z,60.69
2018-08-09T00:29:54.983Z,60.24
2018-08-09T00:32:23.871Z,60.34
2018-08-09T00:34:52.779Z,60.40
2018-08-09T00:37:21.785Z,60.53
2018-08-09T00:39:50.694Z,59.87
2018-08-09T00:42:19.727Z,60.66
2018-08-09T00:44:48.925Z,60.31
2018-08-09T00:47:17.843Z,60.60
2018-08-09T00:49:46.739Z,61.35
2018-08-09T00:52:15.726Z,61.39
2018-08-09T00:54:44.603Z,62.22
2018-08-09T00:57:13.535Z,62.70
2018-08-09T00:59:42.426Z,63.24
2018-08-09T01:02:12.028Z,63.01
2018-08-09T01:04:40.947Z,61.27
2018-08-09T01:07:09.875Z,61.41
2018-08-09T01:09:38.934Z,61.86
2018-08-09T01:12:07.879Z,61.71
2018-08-09T01:14:36.824Z,61.63
2018-08-09T01:17:05.808Z,60.86
2018-08-09T01:19:34.825Z,61.57
2018-08-09T01:22:03.846Z,60.08
2018-08-09T01:24:32.767Z,60.17
2018-08-09T01:27:01.767Z,60.09
2018-08-09T01:29:30.782Z,60.44
2018-08-09T01:31:59.649Z,60.53
2018-08-09T01:34:28.539Z,60.39
2018-08-09T01:36:57.463Z,60.28
2018-08-09T01:39:31.867Z,59.86
2018-08-09T01:42:12.273Z,59.63
2018-08-09T01:44:41.215Z,59.06
2018-08-09T01:47:10.199Z,58.97
2018-08-09T01:49:39.104Z,58.85
2018-08-09T01:52:08.021Z,58.24
2018-08-09T01:54:36.957Z,58.41
2018-08-09T01:57:05.861Z,58.20
2018-08-09T01:59:34.825Z,58.75
2018-08-09T02:02:03.819Z,59.51
2018-08-09T02:04:32.737Z,60.18
2018-08-09T02:07:07.344Z,59.99
2018-08-09T02:09:41.720Z,59.57
2018-08-09T02:12:10.639Z,59.87
2018-08-09T02:14:39.558Z,60.33
2018-08-09T02:17:08.495Z,59.89
2018-08-09T02:19:37.459Z,60.56
2018-08-09T02:22:06.427Z,60.77
2018-08-09T02:24:35.373Z,60.26
2018-08-09T02:27:04.342Z,60.37
2018-08-09T02:29:33.263Z,59.96
2018-08-09T02:32:02.246Z,60.04
2018-08-09T02:34:31.200Z,59.60
2018-08-09T02:37:00.083Z,60.27
2018-08-09T02:39:28.999Z,59.35
2018-08-09T02:41:57.912Z,59.87
2018-08-09T02:44:26.860Z,59.85
2018-08-09T02:46:55.784Z,60.21
2018-08-09T02:49:24.740Z,60.52
2018-08-09T02:51:53.616Z,60.99
2018-08-09T02:54:22.533Z,60.04
2018-08-09T02:56:51.466Z,60.35
2018-08-09T02:59:20.384Z,59.62
2018-08-09T03:01:55.916Z,58.86
2018-08-09T03:04:24.916Z,59.55
2018-08-09T03:06:53.820Z,58.87
2018-08-09T03:09:22.751Z,58.57
2018-08-09T03:11:51.682Z,58.56
2018-08-09T03:14:20.589Z,58.20
2018-08-09T03:16:49.515Z,58.60
2018-08-09T03:19:18.447Z,58.87
2018-08-09T03:21:47.347Z,58.70
2018-08-09T03:24:16.499Z,58.67
2018-08-09T03:26:45.340Z,57.97
2018-08-09T03:29:14.232Z,57.37
2018-08-09T03:31:43.119Z,57.44
2018-08-09T03:34:12.011Z,57.11
2018-08-09T03:36:43.849Z,58.40
2018-08-09T03:39:13.271Z,59.17
2018-08-09T03:41:42.181Z,59.02
2018-08-09T03:44:11.111Z,59.49
2018-08-09T03:46:40.055Z,58.83
2018-08-09T03:49:09.023Z,59.41
2018-08-09T03:51:37.952Z,59.41
2018-08-09T03:54:06.897Z,59.37
2018-08-09T03:56:35.797Z,59.60
2018-08-09T03:59:04.679Z,60.03
2018-08-09T04:01:33.660Z,59.45
2018-08-09T04:04:02.575Z,59.72
2018-08-09T04:06:31.492Z,59.13
2018-08-09T04:09:01.205Z,59.05
2018-08-09T04:11:30.125Z,59.28
2018-08-09T04:13:59.121Z,58.99
2018-08-09T04:16:28.014Z,58.97
2018-08-09T04:18:56.957Z,59.09
2018-08-09T04:21:25.916Z,59.07
2018-08-09T04:23:54.821Z,60.42
2018-08-09T04:26:23.727Z,61.50
2018-08-09T04:28:52.651Z,63.32
2018-08-09T04:31:21.580Z,63.85
2018-08-09T04:33:51.179Z,64.75
2018-08-09T04:36:20.157Z,65.34
2018-08-09T04:38:49.083Z,65.56
2018-08-09T04:41:18.052Z,66.00
2018-08-09T04:43:46.965Z,65.93
2018-08-09T04:46:15.946Z,65.19
2018-08-09T04:48:50.468Z,64.66
2018-08-09T04:51:19.404Z,63.93
2018-08-09T04:53:48.319Z,63.42
2018-08-09T04:56:17.241Z,63.99
2018-08-09T04:58:46.172Z,63.49
2018-08-09T05:01:15.054Z,63.57
2018-08-09T05:03:43.980Z,63.70
2018-08-09T05:06:14.702Z,63.97
2018-08-09T05:08:43.585Z,63.09
2018-08-09T05:11:12.542Z,63.11
2018-08-09T05:13:41.467Z,63.42
2018-08-09T05:16:10.411Z,62.61
2018-08-09T05:18:39.387Z,62.31
2018-08-09T05:21:08.775Z,61.70
2018-08-09T05:23:37.720Z,62.12
2018-08-09T05:26:06.972Z,62.08
2018-08-09T05:28:36.947Z,62.07
2018-08-09T05:31:05.920Z,61.67
2018-08-09T05:33:34.927Z,61.88
2018-08-09T05:36:03.914Z,62.30
2018-08-09T05:38:32.956Z,61.75
2018-08-09T05:41:01.883Z,62.14
2018-08-09T05:43:30.847Z,62.50
2018-08-09T05:45:59.767Z,62.18
2018-08-09T05:48:28.808Z,62.35
2018-08-09T05:50:57.840Z,61.57
2018-08-09T05:53:26.742Z,61.20
2018-08-09T05:55:55.689Z,61.19
2018-08-09T05:58:24.659Z,61.17
2018-08-09T06:00:53.700Z,61.34
2018-08-09T06:03:22.676Z,61.40
2018-08-09T06:05:51.663Z,61.40
2018-08-09T06:08:20.572Z,61.31
2018-08-09T06:10:49.553Z,60.76
2018-08-09T06:13:18.479Z,60.98
2018-08-09T06:15:47.445Z,60.72
2018-08-09T06:18:16.383Z,60.06
2018-08-09T06:20:45.339Z,59.95
2018-08-09T06:23:14.406Z,59.97
2018-08-09T06:25:43.364Z,59.92
2018-08-09T06:28:12.404Z,59.64
2018-08-09T06:30:41.360Z,59.91
2018-08-09T06:33:10.296Z,59.17
2018-08-09T06:35:39.752Z,59.13
2018-08-09T06:38:08.697Z,59.24
2018-08-09T06:40:37.715Z,59.01
2018-08-09T06:43:06.695Z,57.82
2018-08-09T06:45:35.617Z,57.54
2018-08-09T06:48:04.597Z,57.74
2018-08-09T06:50:33.504Z,58.58
2018-08-09T06:53:02.489Z,59.63
2018-08-09T06:55:31.407Z,59.80
2018-08-09T06:58:00.324Z,59.51
2018-08-09T07:00:43.033Z,58.79
2018-08-09T07:03:11.962Z,57.42
2018-08-09T07:05:40.877Z,57.05
2018-08-09T07:08:09.875Z,56.83
2018-08-09T07:10:38.872Z,55.95
2018-08-09T07:13:07.836Z,55.77
2018-08-09T07:15:36.897Z,56.00
2018-08-09T07:18:06.096Z,55.81
2018-08-09T07:20:35.135Z,55.65
2018-08-09T07:23:04.254Z,56.50
2018-08-09T07:25:33.416Z,56.67
2018-08-09T07:28:02.983Z,56.19
2018-08-09T07:30:32.207Z,56.33
2018-08-09T07:33:01.258Z,56.62
2018-08-09T07:35:30.238Z,56.52
2018-08-09T07:37:59.487Z,56.56
2018-08-09T07:40:28.543Z,56.71
2018-08-09T07:42:57.679Z,55.74
2018-08-09T07:45:26.628Z,55.89
2018-08-09T07:47:55.628Z,55.66
2018-08-09T07:50:24.651Z,55.72
2018-08-09T07:52:53.602Z,55.94
2018-08-09T07:55:22.598Z,55.55
2018-08-09T07:57:52.660Z,56.16
2018-08-09T08:00:21.608Z,56.23
2018-08-09T08:02:50.634Z,56.26
2018-08-09T08:05:19.696Z,56.85
2018-08-09T08:07:48.847Z,55.88
2018-08-09T08:10:17.847Z,56.02
2018-08-09T08:12:46.896Z,55.58
2018-08-09T08:15:16.008Z,55.90
2018-08-09T08:17:45.048Z,55.10
2018-08-09T08:20:14.064Z,54.77
2018-08-09T08:22:43.006Z,55.03
2018-08-09T08:25:11.972Z,54.66
2018-08-09T08:27:40.960Z,55.22
2018-08-09T08:30:12.089Z,54.74
2018-08-09T08:32:41.846Z,55.65
2018-08-09T08:35:11.181Z,56.13
2018-08-09T08:37:40.832Z,55.54
2018-08-09T08:40:10.492Z,55.34
2018-08-09T08:42:39.607Z,55.33
2018-08-09T08:45:11.348Z,54.47
2018-08-09T08:47:40.453Z,54.80
2018-08-09T08:50:09.612Z,54.41
2018-08-09T08:52:39.666Z,53.89
2018-08-09T08:55:10.248Z,53.69
2018-08-09T08:57:39.442Z,53.27
2018-08-09T09:00:10.502Z,53.72
2018-08-09T09:02:40.414Z,53.75
2018-08-09T09:05:11.552Z,53.36
2018-08-09T09:07:46.019Z,54.14
2018-08-09T09:10:20.475Z,54.66
2018-08-09T09:12:49.439Z,54.95
2018-08-09T09:15:18.430Z,54.48
2018-08-09T09:17:47.439Z,53.83
2018-08-09T09:20:18.020Z,53.30
2018-08-09T09:22:46.971Z,54.34
2018-08-09T09:25:15.974Z,54.21
2018-08-09T09:27:45.015Z,54.54
2018-08-09T09:30:16.487Z,53.95
2018-08-09T09:32:45.955Z,54.38
2018-08-09T09:35:14.950Z,53.59
2018-08-09T09:37:49.551Z,53.97
2018-08-09T09:40:24.071Z,54.22
2018-08-09T09:42:53.020Z,53.53
2018-08-09T09:45:22.123Z,53.43
2018-08-09T09:47:51.136Z,53.30
2018-08-09T09:50:20.048Z,51.83
2018-08-09T09:52:51.137Z,53.57
2018-08-09T09:55:20.072Z,52.97
2018-08-09T09:57:49.042Z,52.88
2018-08-09T10:00:23.355Z,57.42
2018-08-09T10:02:52.399Z,57.13
2018-08-09T10:05:21.310Z,57.09
2018-08-09T10:07:50.364Z,53.04
2018-08-09T10:10:19.662Z,51.83
2018-08-09T10:12:48.698Z,51.89
2018-08-09T10:15:17.718Z,50.58
2018-08-09T10:17:46.749Z,50.85
2018-08-09T10:20:15.744Z,51.26
2018-08-09T10:22:44.742Z,51.12
2018-08-09T10:25:13.695Z,51.74
2018-08-09T10:27:42.682Z,52.26
2018-08-09T10:30:11.607Z,52.55
2018-08-09T10:32:40.530Z,52.23
2018-08-09T10:35:09.661Z,52.38
2018-08-09T10:37:38.903Z,53.48
2018-08-09T10:40:07.905Z,53.84
2018-08-09T10:42:36.953Z,54.16
2018-08-09T10:45:06.023Z,54.30
2018-08-09T10:47:35.160Z,55.87
2018-08-09T10:50:04.242Z,56.19
2018-08-09T10:52:33.347Z,54.79
2018-08-09T10:55:02.251Z,55.80
2018-08-09T10:57:31.185Z,56.72
2018-08-09T11:00:00.194Z,56.32
2018-08-09T11:02:29.190Z,56.78
2018-08-09T11:04:58.113Z,56.05
2018-08-09T11:07:27.043Z,55.67
2018-08-09T11:09:58.048Z,56.07
2018-08-09T11:12:27.030Z,56.69
2018-08-09T11:14:56.024Z,56.91
2018-08-09T11:17:24.915Z,56.68
2018-08-09T11:19:53.939Z,56.47
2018-08-09T11:22:22.863Z,56.64
2018-08-09T11:24:51.789Z,57.24
2018-08-09T11:27:20.807Z,56.96
2018-08-09T11:29:49.829Z,57.54
2018-08-09T11:32:18.743Z,57.10
2018-08-09T11:34:47.781Z,57.19
2018-08-09T11:37:22.321Z,57.41
2018-08-09T11:39:56.683Z,57.92
2018-08-09T11:42:25.617Z,58.85
2018-08-09T11:44:54.525Z,59.71
2018-08-09T11:47:29.133Z,61.91
2018-08-09T11:49:58.202Z,61.76
2018-08-09T11:52:27.117Z,63.47
2018-08-09T11:54:56.031Z,63.63
2018-08-09T11:57:24.943Z,63.99
2018-08-09T11:59:53.867Z,65.17
2018-08-09T12:02:22.797Z,66.25
2018-08-09T12:04:51.767Z,67.14
2018-08-09T12:07:20.812Z,66.86
2018-08-09T12:10:52.761Z,68.28
2018-08-09T12:13:21.753Z,68.61
2018-08-09T12:15:50.803Z,69.11
2018-08-09T12:18:20.233Z,68.69
2018-08-09T12:20:49.190Z,69.04
2018-08-09T12:23:18.142Z,69.50
2018-08-09T12:25:47.186Z,70.50
2018-08-09T12:28:16.246Z,71.82
2018-08-09T12:30:45.176Z,73.52
2018-08-09T12:33:14.260Z,73.06
2018-08-09T12:35:43.198Z,74.70
2018-08-09T12:38:12.080Z,75.83
2018-08-09T12:40:41.091Z,75.04
2018-08-09T12:43:10.792Z,74.74
2018-08-09T12:45:39.969Z,76.78
2018-08-09T12:48:08.963Z,76.86
2018-08-09T12:50:37.999Z,76.16
2018-08-09T12:53:06.927Z,75.71
2018-08-09T12:55:35.880Z,75.17
2018-08-09T12:58:10.346Z,75.38
2018-08-09T13:00:44.869Z,75.55
2018-08-09T13:03:13.840Z,75.59
2018-08-09T13:05:42.902Z,75.74
2018-08-09T13:08:11.953Z,76.10
2018-08-09T13:10:41.014Z,74.42
2018-08-09T13:13:10.047Z,76.29
2018-08-09T13:15:39.009Z,74.80
2018-08-09T13:18:08.247Z,76.12
2018-08-09T13:20:37.181Z,75.64
2018-08-09T13:23:06.120Z,75.90
2018-08-09T13:25:35.157Z,75.73
2018-08-09T13:28:04.127Z,75.69
2018-08-09T13:30:33.117Z,76.03
2018-08-09T13:33:02.202Z,77.77
2018-08-09T13:35:31.427Z,77.75
2018-08-09T13:38:00.398Z,77.78
2018-08-09T13:40:29.424Z,77.89
2018-08-09T13:42:58.478Z,76.93
2018-08-09T13:45:27.516Z,76.57
2018-08-09T13:47:56.457Z,76.58
2018-08-09T13:50:25.423Z,75.96
2018-08-09T13:52:54.311Z,77.49
2018-08-09T13:55:23.269Z,77.31
2018-08-09T13:57:52.327Z,76.81
2018-08-09T14:00:21.288Z,75.72
2018-08-09T14:02:50.235Z,75.83
2018-08-09T14:05:19.239Z,76.33
2018-08-09T14:07:48.170Z,76.78
2018-08-09T14:10:22.673Z,77.46
2018-08-09T14:12:51.558Z,77.82
2018-08-09T14:15:20.505Z,77.98
2018-08-09T14:17:49.688Z,77.98
2018-08-09T14:20:18.881Z,76.87
2018-08-09T14:22:47.865Z,76.98
2018-08-09T14:25:16.888Z,77.23
2018-08-09T14:27:45.849Z,77.55
2018-08-09T14:30:18.018Z,78.24
2018-08-09T14:32:46.959Z,78.05
2018-08-09T14:35:19.424Z,78.09
2018-08-09T14:37:48.505Z,77.35
2018-08-09T14:40:17.427Z,76.65
2018-08-09T14:42:49.791Z,76.51
2018-08-09T14:45:18.797Z,76.30
2018-08-09T14:47:48.926Z,77.41
2018-08-09T14:50:17.807Z,76.57
2018-08-09T14:52:46.763Z,77.35
2018-08-09T14:55:15.672Z,78.19
2018-08-09T14:57:44.680Z,78.32
2018-08-09T15:00:16.492Z,78.37
2018-08-09T15:02:46.118Z,78.73
2018-08-09T15:05:16.678Z,77.99
2018-08-09T15:07:51.211Z,77.53
2018-08-09T15:10:21.268Z,77.15
2018-08-09T15:12:51.045Z,77.11
2018-08-09T15:15:20.139Z,77.22
2018-08-09T15:17:49.117Z,77.77
2018-08-09T15:20:19.363Z,77.87
2018-08-09T15:22:49.344Z,77.27
2018-08-09T15:25:18.916Z,78.15
2018-08-09T15:27:48.057Z,77.20
2018-08-09T15:30:18.291Z,77.58
2018-08-09T15:32:47.722Z,77.29
2018-08-09T15:35:17.685Z,77.23
2018-08-09T15:37:46.672Z,78.02
2018-08-09T15:40:16.174Z,77.65
2018-08-09T15:42:45.214Z,78.60
2018-08-09T15:45:15.293Z,77.95
2018-08-09T15:47:44.390Z,78.75
2018-08-09T15:50:16.302Z,79.08
2018-08-09T15:52:45.443Z,79.62
2018-08-09T15:55:19.896Z,79.82
2018-08-09T15:57:49.065Z,79.21
2018-08-09T16:00:20.294Z,79.93
2018-08-09T16:02:49.373Z,79.74
2018-08-09T16:05:18.686Z,79.64
2018-08-09T16:07:49.211Z,79.91
2018-08-09T16:10:18.856Z,80.51
2018-08-09T16:12:48.919Z,80.19
2018-08-09T16:15:20.508Z,79.82
2018-08-09T16:17:50.111Z,80.54
2018-08-09T16:20:19.102Z,79.77
2018-08-09T16:22:48.094Z,79.94
2018-08-09T16:25:19.124Z,80.12
2018-08-09T16:27:50.065Z,80.36
2018-08-09T16:30:23.181Z,80.58
2018-08-09T16:32:52.905Z,81.43
2018-08-09T16:35:22.245Z,81.36
2018-08-09T16:37:51.658Z,81.69
2018-08-09T16:40:23.006Z,82.01
2018-08-09T16:42:52.094Z,82.31
2018-08-09T16:45:22.152Z,82.51
2018-08-09T16:47:52.080Z,83.64
2018-08-09T16:50:23.123Z,83.36
2018-08-09T16:52:52.490Z,83.73
2018-08-09T16:55:22.733Z,82.97
2018-08-09T16:57:51.758Z,82.90
2018-08-09T17:00:22.314Z,82.58
2018-08-09T17:02:52.580Z,82.56
2018-08-09T17:08:06.321Z,83.10
2018-08-09T17:10:42.670Z,83.16
2018-08-09T17:13:14.850Z,82.82
2018-08-09T17:15:48.592Z,83.50
2018-08-09T17:18:36.160Z,84.87
2018-08-09T17:21:08.389Z,84.25
2018-08-09T17:26:38.116Z,82.90
2018-08-09T17:29:09.150Z,81.31
2018-08-09T17:31:38.738Z,81.59
2018-08-09T17:34:12.230Z,81.79
2018-08-09T17:36:42.178Z,82.38
2018-08-09T17:39:12.430Z,82.12
2018-08-09T17:41:41.559Z,81.19
2018-08-09T17:44:12.498Z,79.70
2018-08-09T17:46:42.101Z,79.40
2018-08-09T17:49:11.218Z,80.11
2018-08-09T17:51:40.181Z,79.58
2018-08-09T17:54:09.880Z,79.70
2018-08-09T17:56:38.894Z,80.83
2018-08-09T17:59:07.872Z,80.78
2018-08-09T18:01:37.056Z,80.20
2018-08-09T18:04:06.244Z,80.31
2018-08-09T18:06:35.435Z,80.41
2018-08-09T18:09:07.756Z,80.67
2018-08-09T18:11:36.804Z,81.31
2018-08-09T18:14:08.011Z,81.19
2018-08-09T18:16:37.918Z,81.36
2018-08-09T18:19:07.474Z,81.19
2018-08-09T18:21:36.681Z,81.72
2018-08-09T18:24:05.921Z,81.98
2018-08-09T18:26:34.954Z,81.76
2018-08-09T18:29:04.313Z,81.55
2018-08-09T18:31:33.756Z,80.90
2018-08-09T18:34:04.793Z,81.01
2018-08-09T18:36:33.914Z,80.60
2018-08-09T18:39:06.610Z,80.79
2018-08-09T18:41:39.150Z,80.62
2018-08-09T18:44:08.160Z,80.55
2018-08-09T18:46:37.211Z,80.51
2018-08-09T18:49:06.290Z,79.89
2018-08-09T18:51:35.336Z,79.23
2018-08-09T18:54:06.396Z,79.07
2018-08-09T18:56:35.384Z,79.13
2018-08-09T18:59:04.468Z,78.32
2018-08-09T19:01:33.612Z,77.93
2018-08-09T19:04:02.581Z,78.42
2018-08-09T19:06:31.543Z,78.35
2018-08-09T19:09:01.826Z,77.82
2018-08-09T19:11:30.735Z,78.29
2018-08-09T19:13:59.775Z,76.90
2018-08-09T19:16:28.768Z,76.27
2018-08-09T19:18:58.029Z,76.36
2018-08-09T19:21:27.104Z,75.66
2018-08-09T19:23:56.118Z,75.29
2018-08-09T19:26:28.933Z,75.49
2018-08-09T19:28:57.995Z,75.72
2018-08-09T19:31:26.965Z,76.42
2018-08-09T19:33:56.009Z,76.99
2018-08-09T19:36:25.875Z,77.67
2018-08-09T19:38:55.298Z,78.53
2018-08-09T19:41:24.336Z,79.70
2018-08-09T19:43:53.414Z,79.79
2018-08-09T19:46:22.480Z,80.41
2018-08-09T19:48:56.981Z,80.14
2018-08-09T19:51:30.204Z,79.95
2018-08-09T19:53:59.429Z,80.10
2018-08-09T19:56:28.718Z,79.76
2018-08-09T19:58:57.745Z,80.10
2018-08-09T20:01:26.744Z,80.72
2018-08-09T20:03:55.703Z,80.70
2018-08-09T20:06:25.375Z,80.26
2018-08-09T20:08:54.312Z,80.87
2018-08-09T20:11:23.410Z,80.28
2018-08-09T20:13:52.449Z,81.34
2018-08-09T20:16:21.466Z,82.10
2018-08-09T20:18:50.530Z,82.13
2018-08-09T20:21:19.472Z,81.88
2018-08-09T20:23:48.372Z,81.39
2018-08-09T20:26:17.292Z,81.42
2018-08-09T20:28:46.283Z,80.72
2018-08-09T20:31:15.229Z,80.58
2018-08-09T20:33:44.259Z,81.03
2018-08-09T20:36:13.170Z,80.92
2018-08-09T20:38:42.191Z,80.15
2018-08-09T20:41:11.199Z,79.88
2018-08-09T20:43:40.065Z,79.73
2018-08-09T20:46:09.027Z,80.31
2018-08-09T20:48:37.956Z,81.04
2018-08-09T20:51:07.325Z,81.73
2018-08-09T20:53:36.292Z,81.76
2018-08-09T20:56:06.225Z,82.56
2018-08-09T20:58:35.207Z,81.72
2018-08-09T21:01:04.211Z,81.28
2018-08-09T21:03:33.252Z,80.92
2018-08-09T21:06:02.336Z,80.99
2018-08-09T21:08:31.271Z,81.53
2018-08-09T21:11:00.204Z,81.28
2018-08-09T21:13:29.172Z,81.68
2018-08-09T21:15:58.210Z,81.36
2018-08-09T21:18:27.265Z,80.58
2018-08-09T21:20:56.290Z,81.10
2018-08-09T21:23:25.270Z,80.66
2018-08-09T21:25:54.229Z,80.33
2018-08-09T21:28:23.238Z,80.20
2018-08-09T21:30:52.256Z,78.92
2018-08-09T21:33:21.221Z,79.02
2018-08-09T21:35:50.199Z,79.41
2018-08-09T21:38:19.105Z,79.57
2018-08-09T21:40:48.124Z,79.45
2018-08-09T21:43:17.008Z,79.46
2018-08-09T21:45:45.942Z,79.75
2018-08-09T21:48:14.863Z,79.28
2018-08-09T21:50:43.866Z,78.78
2018-08-09T21:53:12.778Z,78.83
2018-08-09T21:55:41.751Z,78.10
2018-08-09T21:58:11.562Z,77.86
2018-08-09T22:00:51.078Z,77.20
2018-08-09T22:03:22.077Z,77.60
2018-08-09T22:05:56.357Z,77.00
2018-08-09T22:08:30.574Z,76.45
2018-08-09T22:11:04.703Z,75.95
2018-08-09T22:13:38.859Z,75.31
2018-08-09T22:16:13.152Z,74.62
2018-08-09T22:18:47.398Z,74.17
2018-08-09T22:21:21.647Z,73.33
2018-08-09T22:23:50.613Z,73.36
2018-08-09T22:26:19.562Z,73.60
2018-08-09T22:28:48.496Z,72.88
2018-08-09T22:31:17.499Z,73.11
2018-08-09T22:33:46.675Z,71.90
2018-08-09T22:36:15.709Z,72.17
2018-08-09T22:38:44.672Z,71.28
2018-08-09T22:41:13.561Z,70.97
2018-08-09T22:43:42.492Z,71.02
2018-08-09T22:46:11.431Z,71.05
2018-08-09T22:48:40.341Z,70.80
2018-08-09T22:51:09.410Z,70.68
2018-08-09T22:53:38.445Z,71.25
2018-08-09T22:56:07.361Z,70.80
2018-08-09T22:58:36.257Z,71.19
2018-08-09T23:01:05.576Z,71.45
2018-08-09T23:03:34.546Z,71.67
2018-08-09T23:06:03.678Z,70.73
2018-08-09T23:08:32.599Z,71.12
2018-08-09T23:11:01.536Z,70.60
2018-08-09T23:13:30.467Z,70.76
2018-08-09T23:15:59.464Z,70.73
2018-08-09T23:18:28.485Z,69.35
2018-08-09T23:20:57.396Z,69.22
2018-08-09T23:23:26.313Z,69.18
2018-08-09T23:25:55.223Z,68.53
2018-08-09T23:28:24.151Z,68.92
2018-08-09T23:30:53.172Z,68.73
2018-08-09T23:33:23.017Z,68.99
2018-08-09T23:35:52.005Z,69.11
2018-08-09T23:38:21.051Z,68.57
2018-08-09T23:40:50.140Z,68.08
2018-08-09T23:43:19.078Z,66.86
2018-08-09T23:45:48.020Z,66.50
2018-08-09T23:48:17.039Z,66.96
2018-08-09T23:50:45.932Z,66.97
2018-08-09T23:53:14.899Z,65.97
2018-08-09T23:55:43.948Z,65.83
2018-08-09T23:58:12.884Z,65.39
